Time;durP1;ratioP1;P1;durP2;ratioP2;P2;SDS_P1;SDS_P2;PMS_P1;PMS_P2;Temp;Humidity;BMP_temperature;BMP_pressure;BME280_temperature;BME280_humidity;BME280_pressure;Samples;Min_cycle;Max_cycle;Signal;HPM_P1;HPM_P2
2021/11/13 00:01:35;;;;;;;2.58;1.75;;;5.10;97.20;;;;;;5015799;28;20056;-79
2021/11/13 00:04:01;;;;;;;2.58;1.45;;;5.00;97.50;;;;;;4999375;28;20491;-81
2021/11/13 00:06:27;;;;;;;3.78;1.80;;;4.90;97.80;;;;;;5015206;28;20097;-79
2021/11/13 00:08:53;;;;;;;2.42;1.40;;;4.90;98.00;;;;;;5016858;28;20410;-80
2021/11/13 00:11:19;;;;;;;2.72;1.85;;;4.80;98.20;;;;;;5019165;28;20040;-79
2021/11/13 00:13:51;;;;;;;1.85;1.40;;;4.70;98.40;;;;;;5018146;28;20063;-80
2021/11/13 00:16:17;;;;;;;3.67;1.90;;;4.70;98.50;;;;;;5016379;28;20033;-79
2021/11/13 00:18:43;;;;;;;2.10;1.75;;;4.70;98.60;;;;;;5016442;28;20026;-79
2021/11/13 00:21:10;;;;;;;2.88;2.03;;;4.70;98.60;;;;;;5016649;28;20601;-79
2021/11/13 00:23:36;;;;;;;4.93;1.55;;;4.70;98.60;;;;;;5019036;28;20082;-80
2021/11/13 00:26:03;;;;;;;3.45;1.70;;;4.70;98.40;;;;;;5017223;28;20497;-78
2021/11/13 00:28:29;;;;;;;1.40;1.30;;;4.80;98.20;;;;;;5016641;28;20095;-81
2021/11/13 00:30:55;;;;;;;1.67;1.58;;;4.80;98.00;;;;;;5016163;28;20053;-80
2021/11/13 00:33:21;;;;;;;1.83;1.60;;;4.80;98.10;;;;;;5015954;28;20024;-80
2021/11/13 00:35:47;;;;;;;2.30;1.65;;;4.80;98.00;;;;;;5015996;28;20022;-79
2021/11/13 00:38:13;;;;;;;1.63;1.48;;;4.80;97.90;;;;;;5016185;28;20026;-79
2021/11/13 00:40:39;;;;;;;1.65;1.50;;;4.80;98.00;;;;;;5016253;28;20077;-80
2021/11/13 00:43:05;;;;;;;2.22;1.50;;;4.70;98.10;;;;;;5015992;28;20060;-80
2021/11/13 00:45:31;;;;;;;1.35;1.25;;;4.70;98.20;;;;;;5016085;28;20050;-80
2021/11/13 00:47:57;;;;;;;1.67;1.45;;;4.70;98.40;;;;;;5015980;28;20025;-80
2021/11/13 00:50:23;;;;;;;2.30;1.65;;;4.70;98.30;;;;;;5015828;28;20088;-80
2021/11/13 00:52:49;;;;;;;1.48;1.20;;;4.70;98.40;;;;;;5015956;28;20029;-80
2021/11/13 00:55:19;;;;;;;1.58;1.30;;;4.70;98.60;;;;;;5016038;28;20025;-79
2021/11/13 00:57:45;;;;;;;1.95;1.40;;;4.70;98.70;;;;;;5015723;28;20128;-81
2021/11/13 01:00:14;;;;;;;1.50;1.27;;;4.70;98.70;;;;;;5015727;28;20029;-80
2021/11/13 01:02:41;;;;;;;3.15;1.30;;;4.70;98.60;;;;;;4997920;28;20033;-78
2021/11/13 01:05:08;;;;;;;3.40;1.27;;;4.80;98.50;;;;;;5015646;28;20109;-78
2021/11/13 01:07:34;;;;;;;1.63;1.20;;;4.80;98.20;;;;;;4997696;28;20041;-79
2021/11/13 01:10:00;;;;;;;2.05;1.27;;;4.80;98.00;;;;;;5015374;28;20267;-80
2021/11/13 01:12:26;;;;;;;1.10;0.90;;;4.90;97.80;;;;;;5015888;28;20104;-80
2021/11/13 01:14:52;;;;;;;1.50;1.00;;;4.90;97.40;;;;;;5000236;28;20044;-80
2021/11/13 01:17:18;;;;;;;3.53;1.00;;;5.00;97.40;;;;;;5007787;28;20018;-80
2021/11/13 01:19:46;;;;;;;1.17;0.90;;;5.00;97.40;;;;;;5018958;28;20041;-80
2021/11/13 01:22:14;;;;;;;1.73;1.00;;;5.00;97.40;;;;;;5018592;28;20360;-80
2021/11/13 01:24:40;;;;;;;;;;;5.00;97.20;;;;;;5017745;28;20101;-80
2021/11/13 01:27:06;;;;;;;1.65;1.15;;;5.00;97.10;;;;;;5017187;28;19913;-79
2021/11/13 01:29:32;;;;;;;0.82;0.80;;;5.00;96.60;;;;;;5017367;28;20435;-80
2021/11/13 01:31:58;;;;;;;1.58;0.90;;;5.00;96.10;;;;;;5016378;28;20022;-81
2021/11/13 01:34:25;;;;;;;0.70;0.63;;;5.10;96.10;;;;;;5015654;28;20069;-80
2021/11/13 01:36:51;;;;;;;1.30;1.02;;;5.10;95.90;;;;;;4997958;28;20100;-80
2021/11/13 01:39:17;;;;;;;0.57;0.57;;;5.00;95.90;;;;;;5015215;28;20021;-80
2021/11/13 01:41:43;;;;;;;2.03;0.70;;;5.10;95.70;;;;;;5015609;28;20530;-80
2021/11/13 01:44:10;;;;;;;1.48;0.88;;;5.00;95.50;;;;;;5015191;28;20049;-79
2021/11/13 01:46:37;;;;;;;1.77;1.20;;;5.10;95.60;;;;;;5015591;28;20463;-79
2021/11/13 01:49:03;;;;;;;1.30;0.80;;;5.10;95.50;;;;;;5014964;28;20057;-79
2021/11/13 01:51:32;;;;;;;0.65;0.52;;;5.10;95.50;;;;;;5014953;28;20529;-79
2021/11/13 01:54:04;;;;;;;0.98;0.85;;;5.10;95.40;;;;;;5014893;28;20033;-80
2021/11/13 01:56:30;;;;;;;0.65;0.65;;;5.10;95.40;;;;;;5014853;28;20065;-81
2021/11/13 01:58:58;;;;;;;0.88;0.73;;;5.10;95.40;;;;;;5014510;28;20038;-80
2021/11/13 02:01:24;;;;;;;;;;;5.10;95.50;;;;;;5015142;28;20101;-80
2021/11/13 02:03:51;;;;;;;1.02;0.70;;;5.10;95.50;;;;;;5015736;28;19983;-80
2021/11/13 02:06:18;;;;;;;1.33;1.15;;;5.00;95.40;;;;;;4997822;28;20069;-80
2021/11/13 02:08:45;;;;;;;0.77;0.77;;;5.00;95.40;;;;;;5016357;28;20018;-80
2021/11/13 02:11:13;;;;;;;1.20;0.93;;;5.00;95.40;;;;;;5014773;28;20124;-81
2021/11/13 02:13:39;;;;;;;1.25;1.00;;;5.10;95.40;;;;;;5014314;28;20026;-80
2021/11/13 02:16:06;;;;;;;1.02;0.90;;;5.10;95.50;;;;;;5014392;28;20518;-80
2021/11/13 02:18:32;;;;;;;;;;;5.10;95.40;;;;;;4998034;28;20066;-80
2021/11/13 02:20:58;;;;;;;1.63;1.02;;;5.10;95.40;;;;;;5014481;28;19906;-81
2021/11/13 02:23:26;;;;;;;1.13;1.02;;;5.00;95.60;;;;;;5016789;28;20022;-80
2021/11/13 02:25:53;;;;;;;1.15;1.05;;;5.00;95.90;;;;;;5019728;28;20060;-81
2021/11/13 02:28:21;;;;;;;2.60;1.05;;;4.90;96.20;;;;;;5014805;28;20391;-80
2021/11/13 02:30:48;;;;;;;1.65;1.27;;;4.80;96.40;;;;;;5014652;28;20437;-80
2021/11/13 02:33:14;;;;;;;;;;;4.80;96.70;;;;;;5014535;28;20025;-81
2021/11/13 02:35:41;;;;;;;1.88;1.30;;;4.80;96.70;;;;;;5012341;28;19913;-79
2021/11/13 02:38:12;;;;;;;1.15;1.05;;;4.70;96.80;;;;;;5014271;28;20479;-81
2021/11/13 02:40:39;;;;;;;2.63;1.38;;;4.70;97.00;;;;;;4996389;28;20487;-81
2021/11/13 02:43:05;;;;;;;1.65;1.17;;;4.80;96.90;;;;;;5014017;28;20069;-80
2021/11/13 02:45:32;;;;;;;2.20;1.35;;;4.80;97.10;;;;;;5013759;28;20057;-80
2021/11/13 02:48:01;;;;;;;1.17;1.02;;;4.80;96.90;;;;;;5014037;28;20030;-80
2021/11/13 02:50:28;;;;;;;2.03;1.20;;;4.80;96.90;;;;;;5013700;28;20026;-79
2021/11/13 02:52:58;;;;;;;1.77;1.27;;;4.90;97.00;;;;;;5013880;28;20076;-79
2021/11/13 02:55:25;;;;;;;2.50;1.00;;;4.90;97.00;;;;;;5013432;28;20022;-79
2021/11/13 02:57:51;;;;;;;1.30;1.10;;;4.80;97.10;;;;;;5013446;28;20054;-79
2021/11/13 03:00:21;;;;;;;1.25;1.00;;;4.80;97.30;;;;;;5013610;28;20022;-80
2021/11/13 03:02:47;;;;;;;2.45;0.80;;;4.80;97.00;;;;;;5013548;28;20442;-79
2021/11/13 03:05:24;;;;;;;2.83;1.20;;;4.90;97.00;;;;;;5013516;28;20030;-79
2021/11/13 03:07:52;;;;;;;1.83;1.60;;;4.90;97.00;;;;;;5013282;28;20034;-80
2021/11/13 03:10:18;;;;;;;1.10;0.88;;;4.90;97.00;;;;;;5013221;28;20033;-80
2021/11/13 03:12:44;;;;;;;1.42;1.10;;;4.90;96.90;;;;;;5013330;28;20029;-78
2021/11/13 03:15:13;;;;;;;1.95;1.10;;;4.90;96.90;;;;;;5013239;28;20486;-79
2021/11/13 03:17:39;;;;;;;2.55;0.98;;;4.80;97.10;;;;;;5013178;28;20022;-79
2021/11/13 03:20:09;;;;;;;2.13;1.20;;;4.80;97.30;;;;;;5013736;28;20105;-80
2021/11/13 03:22:37;;;;;;;2.08;1.27;;;4.70;97.50;;;;;;5014550;28;20464;-80
2021/11/13 03:25:08;;;;;;;2.33;1.42;;;4.70;97.80;;;;;;5013302;28;20020;-79
2021/11/13 03:27:35;;;;;;;1.65;1.38;;;4.70;97.90;;;;;;5017950;28;20033;-79
2021/11/13 03:30:04;;;;;;;1.17;1.08;;;4.60;98.00;;;;;;5022964;28;20093;-79
2021/11/13 03:32:30;;;;;;;3.00;1.60;;;4.50;98.10;;;;;;5021582;28;20034;-79
2021/11/13 03:34:56;;;;;;;2.25;1.40;;;4.50;98.40;;;;;;5013639;28;20022;-79
2021/11/13 03:37:22;;;;;;;3.15;1.63;;;4.50;98.60;;;;;;5013641;28;20077;-81
2021/11/13 03:39:47;;;;;;;2.13;1.33;;;4.40;98.70;;;;;;5013330;28;20018;-80
2021/11/13 03:42:13;;;;;;;2.28;1.33;;;4.40;98.80;;;;;;5013044;28;20033;-80
2021/11/13 03:44:39;;;;;;;1.45;1.33;;;4.40;99.00;;;;;;4992275;28;20488;-79
2021/11/13 03:47:05;;;;;;;3.20;1.35;;;4.40;99.10;;;;;;4993317;28;20085;-80
2021/11/13 03:49:31;;;;;;;3.22;1.30;;;4.40;99.10;;;;;;4993449;28;20029;-79
2021/11/13 03:51:59;;;;;;;2.35;1.48;;;4.40;99.20;;;;;;4993835;28;20109;-79
2021/11/13 03:54:25;;;;;;;2.72;1.75;;;4.40;99.30;;;;;;4993325;28;20100;-81
2021/11/13 03:56:51;;;;;;;2.85;1.73;;;4.40;99.30;;;;;;4993319;28;20034;-80
2021/11/13 03:59:17;;;;;;;2.28;1.80;;;4.40;99.40;;;;;;4991850;28;20050;-80
2021/11/13 04:01:43;;;;;;;2.08;1.40;;;4.40;99.30;;;;;;4999594;28;20030;-80
2021/11/13 04:04:09;;;;;;;3.53;2.10;;;4.40;99.40;;;;;;4998194;28;20022;-79
2021/11/13 04:06:35;;;;;;;6.55;2.28;;;4.50;99.60;;;;;;4992095;28;20077;-80
2021/11/13 04:09:02;;;;;;;2.85;2.28;;;4.50;99.50;;;;;;4993284;28;20026;-79
2021/11/13 04:11:28;;;;;;;2.72;1.80;;;4.50;99.40;;;;;;5009242;28;20026;-79
2021/11/13 04:13:54;;;;;;;2.40;1.70;;;4.40;99.30;;;;;;4995788;28;20391;-79
2021/11/13 04:16:19;;;;;;;3.20;2.10;;;4.50;99.30;;;;;;4995148;28;20097;-80
2021/11/13 04:18:45;;;;;;;4.25;2.08;;;4.50;99.10;;;;;;5013107;28;20026;-80
2021/11/13 04:21:11;;;;;;;6.53;2.58;;;4.50;99.10;;;;;;5012849;28;20030;-80
2021/11/13 04:23:37;;;;;;;2.55;1.88;;;4.50;99.00;;;;;;5012951;28;20022;-80
2021/11/13 04:26:04;;;;;;;2.15;1.70;;;4.50;98.90;;;;;;5012938;28;20034;-80
2021/11/13 04:28:30;;;;;;;2.35;1.77;;;4.50;98.70;;;;;;4996232;28;20022;-80
2021/11/13 04:30:56;;;;;;;1.75;1.50;;;4.60;98.50;;;;;;5016494;28;20029;-79
2021/11/13 04:33:22;;;;;;;2.67;1.98;;;4.60;98.30;;;;;;5016298;28;20042;-80
2021/11/13 04:36:37;;;;;;;2.00;1.38;;;4.60;98.10;;;;;;5015164;28;20472;-79
2021/11/13 04:38:35;;;;;;;2.10;1.90;;;4.60;98.10;;;;;;5002185;28;20089;-80
2021/11/13 04:41:03;;;;;;;2.42;1.67;;;4.60;97.60;;;;;;5016057;28;20108;-80
2021/11/13 04:43:29;;;;;;;2.90;2.10;;;4.60;97.50;;;;;;5016457;28;20028;-80
2021/11/13 04:45:55;;;;;;;6.00;2.40;;;4.60;97.50;;;;;;5016996;28;20030;-79
2021/11/13 04:48:22;;;;;;;3.25;2.25;;;4.60;97.40;;;;;;5016343;28;20195;-80
2021/11/13 04:50:48;;;;;;;2.30;1.60;;;4.60;97.40;;;;;;5015863;28;20361;-78
2021/11/13 04:53:14;;;;;;;2.75;2.15;;;4.60;97.30;;;;;;5015938;28;20263;-79
2021/11/13 04:55:40;;;;;;;6.40;2.25;;;4.60;97.20;;;;;;4998193;28;20108;-79
2021/11/13 04:58:06;;;;;;;2.67;1.75;;;4.60;97.10;;;;;;5015358;28;20120;-81
2021/11/13 05:00:33;;;;;;;3.28;2.05;;;4.60;97.10;;;;;;5015537;28;20026;-80
2021/11/13 05:03:00;;;;;;;2.30;1.70;;;4.70;97.10;;;;;;5015877;28;20026;-80
2021/11/13 05:05:28;;;;;;;2.35;1.90;;;4.60;97.00;;;;;;5015469;28;20022;-79
2021/11/13 05:07:55;;;;;;;2.13;1.92;;;4.70;97.10;;;;;;5015422;28;20100;-78
2021/11/13 05:10:21;;;;;;;4.05;1.88;;;4.70;97.10;;;;;;5015266;28;20026;-79
2021/11/13 05:12:47;;;;;;;2.20;1.83;;;4.70;97.00;;;;;;5015342;28;20427;-79
2021/11/13 05:15:14;;;;;;;3.35;2.10;;;4.70;96.80;;;;;;5015258;28;20545;-79
2021/11/13 05:17:41;;;;;;;2.33;1.85;;;4.80;96.80;;;;;;5015325;28;20038;-80
2021/11/13 05:20:12;;;;;;;4.80;1.60;;;4.80;96.80;;;;;;5015086;28;20045;-80
2021/11/13 05:22:40;;;;;;;2.58;2.10;;;4.90;96.80;;;;;;5015282;28;20090;-81
2021/11/13 05:25:08;;;;;;;3.08;2.10;;;4.90;96.50;;;;;;5015379;28;20100;-80
2021/11/13 05:27:35;;;;;;;1.95;1.70;;;4.80;96.50;;;;;;5015043;28;20033;-82
2021/11/13 05:30:01;;;;;;;2.10;1.90;;;4.80;96.40;;;;;;5015415;28;20096;-80
2021/11/13 05:32:29;;;;;;;2.15;1.95;;;4.90;96.40;;;;;;5015196;28;20387;-81
2021/11/13 05:34:55;;;;;;;2.30;1.88;;;4.80;96.30;;;;;;5014937;28;20022;-79
2021/11/13 05:37:21;;;;;;;3.78;1.75;;;4.80;96.30;;;;;;5015362;28;20045;-80
2021/11/13 05:39:47;;;;;;;2.03;1.55;;;4.80;96.20;;;;;;5015202;28;20018;-79
2021/11/13 05:42:15;;;;;;;2.40;1.73;;;4.80;96.20;;;;;;4999534;28;20026;-78
2021/11/13 05:44:41;;;;;;;;;;;4.80;96.30;;;;;;5025839;28;20026;-77
2021/11/13 05:47:07;;;;;;;2.70;1.70;;;4.80;96.20;;;;;;5021713;28;19924;-80
2021/11/13 05:49:33;;;;;;;3.75;1.88;;;4.80;96.20;;;;;;5018916;28;20475;-80
2021/11/13 05:51:59;;;;;;;3.17;1.55;;;4.80;96.20;;;;;;5015239;28;20494;-80
2021/11/13 05:54:25;;;;;;;2.13;1.60;;;4.80;96.30;;;;;;5014860;28;20026;-81
2021/11/13 05:56:51;;;;;;;4.07;2.00;;;4.80;96.30;;;;;;5015395;28;20033;-79
2021/11/13 05:59:16;;;;;;;2.38;1.92;;;4.80;96.10;;;;;;4998964;28;20046;-80
2021/11/13 06:01:42;;;;;;;3.63;2.25;;;4.80;96.20;;;;;;5016882;28;20498;-80
2021/11/13 06:04:09;;;;;;;4.53;1.98;;;4.80;96.20;;;;;;4996973;28;20033;-80
2021/11/13 06:06:35;;;;;;;2.20;1.83;;;4.80;96.20;;;;;;5014192;28;20034;-80
2021/11/13 06:09:01;;;;;;;2.63;1.58;;;4.80;96.20;;;;;;5014945;28;20105;-82
2021/11/13 06:11:26;;;;;;;2.13;1.80;;;4.80;96.10;;;;;;5014135;28;20061;-81
2021/11/13 06:13:52;;;;;;;3.25;2.13;;;4.80;96.10;;;;;;5014353;28;20101;-79
2021/11/13 06:16:18;;;;;;;5.70;2.00;;;4.90;96.30;;;;;;5004894;28;20158;-80
2021/11/13 06:18:44;;;;;;;4.43;2.10;;;4.90;96.10;;;;;;4995441;28;20050;-80
2021/11/13 06:21:10;;;;;;;2.97;1.80;;;4.90;95.80;;;;;;4995742;28;20562;-81
2021/11/13 06:23:38;;;;;;;5.55;2.30;;;4.90;95.90;;;;;;4996961;28;20050;-80
2021/11/13 06:26:04;;;;;;;4.63;1.98;;;5.00;95.80;;;;;;4994213;28;20034;-80
2021/11/13 06:28:31;;;;;;;1.65;1.48;;;5.00;95.80;;;;;;4994356;28;20109;-81
2021/11/13 06:30:57;;;;;;;4.50;1.97;;;4.90;95.70;;;;;;4994237;28;20088;-81
2021/11/13 06:33:23;;;;;;;3.22;1.92;;;4.90;95.60;;;;;;4994279;28;20487;-81
2021/11/13 06:35:49;;;;;;;3.47;2.17;;;4.90;95.70;;;;;;4999893;28;20566;-80
2021/11/13 06:38:15;;;;;;;2.35;2.13;;;5.00;95.80;;;;;;5013651;28;20057;-79
2021/11/13 06:40:41;;;;;;;3.17;2.10;;;5.00;95.70;;;;;;5013626;28;20380;-80
2021/11/13 06:43:07;;;;;;;2.22;1.70;;;5.10;95.40;;;;;;5013629;28;20025;-80
2021/11/13 06:45:33;;;;;;;2.10;1.90;;;5.10;95.30;;;;;;5013092;28;20030;-79
2021/11/13 06:47:59;;;;;;;2.55;2.35;;;5.10;95.20;;;;;;5013291;28;20026;-80
2021/11/13 06:50:25;;;;;;;3.80;2.88;;;5.10;95.10;;;;;;5013540;28;20029;-80
2021/11/13 06:52:50;;;;;;;2.47;2.20;;;5.10;95.20;;;;;;5013022;28;20034;-81
2021/11/13 06:55:17;;;;;;;2.90;2.00;;;5.10;95.20;;;;;;5013249;28;20030;-81
2021/11/13 06:57:43;;;;;;;2.58;2.10;;;5.10;95.10;;;;;;5013349;28;20050;-80
2021/11/13 07:00:13;;;;;;;2.45;1.98;;;5.20;95.10;;;;;;5013463;28;20048;-80
2021/11/13 07:02:39;;;;;;;3.97;2.13;;;5.20;95.10;;;;;;5011869;28;20125;-80
2021/11/13 07:05:06;;;;;;;2.30;1.75;;;5.20;95.10;;;;;;5013325;28;20494;-79
2021/11/13 07:07:33;;;;;;;4.25;2.22;;;5.20;95.10;;;;;;5013476;28;20058;-80
2021/11/13 07:10:04;;;;;;;2.83;2.22;;;5.30;95.00;;;;;;5018032;28;20018;-81
2021/11/13 07:12:30;;;;;;;7.45;2.30;;;5.30;95.10;;;;;;5017583;28;20033;-81
2021/11/13 07:14:56;;;;;;;3.70;2.22;;;5.30;94.80;;;;;;5013299;28;20375;-81
2021/11/13 07:17:22;;;;;;;2.83;2.22;;;5.30;94.90;;;;;;5013540;28;20430;-81
2021/11/13 07:19:48;;;;;;;2.83;2.53;;;5.30;94.90;;;;;;5013265;28;20479;-81
2021/11/13 07:22:16;;;;;;;2.45;2.25;;;5.40;94.80;;;;;;5020774;28;20041;-80
2021/11/13 07:24:42;;;;;;;3.45;2.25;;;5.40;94.90;;;;;;4995524;28;20475;-81
2021/11/13 07:27:09;;;;;;;3.37;2.30;;;5.40;94.80;;;;;;5013107;28;20045;-81
2021/11/13 07:29:44;;;;;;;3.88;2.00;;;5.40;94.90;;;;;;5013375;28;20259;-80
2021/11/13 07:32:10;;;;;;;3.50;2.00;;;5.40;94.70;;;;;;5012922;28;20065;-81
2021/11/13 07:34:36;;;;;;;3.03;2.50;;;5.50;94.70;;;;;;5013256;28;20529;-80
2021/11/13 07:37:03;;;;;;;4.70;2.40;;;5.50;94.40;;;;;;5012597;28;20101;-82
2021/11/13 07:39:29;;;;;;;3.92;1.95;;;5.50;94.40;;;;;;5013032;28;20479;-81
2021/11/13 07:41:54;;;;;;;3.53;2.15;;;5.50;94.30;;;;;;5012796;28;20040;-81
2021/11/13 07:44:20;;;;;;;9.70;2.33;;;5.50;94.20;;;;;;5012669;28;20092;-80
2021/11/13 07:46:46;;;;;;;2.35;1.80;;;5.50;94.00;;;;;;5012949;28;20037;-80
2021/11/13 07:49:12;;;;;;;2.40;2.05;;;5.50;94.00;;;;;;5013352;28;20026;-80
2021/11/13 07:51:39;;;;;;;2.70;2.20;;;5.50;94.00;;;;;;5013992;28;20037;-80
2021/11/13 07:54:05;;;;;;;2.92;1.90;;;5.50;94.20;;;;;;5019563;28;20085;-80
2021/11/13 07:56:31;;;;;;;3.38;2.60;;;5.50;94.10;;;;;;5025761;28;20110;-78
2021/11/13 07:58:58;;;;;;;1.95;1.63;;;5.50;94.00;;;;;;5025035;28;20042;-80
2021/11/13 08:01:24;;;;;;;5.40;2.10;;;5.50;93.90;;;;;;5017622;28;20061;-81
2021/11/13 08:03:51;;;;;;;;;;;5.50;93.70;;;;;;5020584;28;20046;-79
2021/11/13 08:06:17;;;;;;;1.92;1.70;;;5.40;93.50;;;;;;5018527;28;20386;-82
2021/11/13 08:08:42;;;;;;;5.05;2.17;;;5.40;93.60;;;;;;5016336;28;20052;-81
2021/11/13 08:11:08;;;;;;;3.30;2.08;;;5.40;93.80;;;;;;5016323;28;20039;-82
2021/11/13 08:13:36;;;;;;;3.45;1.65;;;5.40;93.80;;;;;;5016793;28;20033;-81
2021/11/13 08:16:02;;;;;;;2.40;1.98;;;5.40;93.70;;;;;;5016865;28;20112;-80
2021/11/13 08:18:28;;;;;;;2.90;2.17;;;5.40;93.70;;;;;;4999200;28;20113;-82
2021/11/13 08:20:54;;;;;;;2.65;1.85;;;5.40;93.70;;;;;;5016612;28;20022;-80
2021/11/13 08:23:20;;;;;;;4.57;2.00;;;5.50;93.70;;;;;;5016381;28;20032;-81
2021/11/13 08:25:48;;;;;;;2.20;2.00;;;5.40;93.60;;;;;;5016487;28;20387;-80
2021/11/13 08:28:14;;;;;;;2.95;2.05;;;5.40;93.70;;;;;;5016615;28;20037;-81
2021/11/13 08:30:40;;;;;;;2.78;1.88;;;5.50;93.70;;;;;;5016067;28;20387;-80
2021/11/13 08:33:07;;;;;;;3.28;2.08;;;5.50;93.70;;;;;;5015996;28;20037;-81
2021/11/13 08:35:36;;;;;;;3.20;2.07;;;5.50;93.80;;;;;;5016068;28;20100;-81
2021/11/13 08:38:02;;;;;;;2.20;1.80;;;5.50;93.80;;;;;;5015949;28;20435;-81
2021/11/13 08:40:29;;;;;;;3.10;2.15;;;5.50;93.70;;;;;;5016567;28;20053;-82
2021/11/13 08:42:54;;;;;;;2.67;2.47;;;5.50;93.70;;;;;;5016635;28;20026;-81
2021/11/13 08:45:20;;;;;;;7.60;2.55;;;5.50;93.80;;;;;;5015591;28;20391;-82
2021/11/13 08:47:47;;;;;;;5.00;2.47;;;5.50;93.60;;;;;;4997998;28;20038;-80
2021/11/13 08:50:19;;;;;;;2.70;2.50;;;5.50;93.70;;;;;;5019637;28;20045;-81
2021/11/13 08:52:49;;;;;;;6.32;2.65;;;5.60;93.70;;;;;;5028537;28;20025;-82
2021/11/13 08:55:16;;;;;;;2.67;1.90;;;5.60;93.60;;;;;;5016524;28;20026;-81
2021/11/13 08:57:46;;;;;;;4.68;2.08;;;5.60;93.50;;;;;;5016029;28;20096;-80
2021/11/13 09:00:17;;;;;;;4.18;2.63;;;5.60;93.50;;;;;;5016131;28;20143;-80
2021/11/13 09:02:43;;;;;;;2.55;1.83;;;5.60;93.50;;;;;;5016035;28;20018;-82
2021/11/13 09:05:09;;;;;;;2.45;2.25;;;5.60;93.50;;;;;;5015987;28;20022;-82
2021/11/13 09:07:36;;;;;;;2.88;2.05;;;5.60;93.40;;;;;;5016012;28;20043;-81
2021/11/13 09:10:04;;;;;;;3.97;2.30;;;5.60;93.20;;;;;;5015591;28;20021;-80
2021/11/13 09:12:31;;;;;;;3.13;1.70;;;5.60;93.20;;;;;;5009355;28;20264;-80
2021/11/13 09:15:05;;;;;;;4.07;2.40;;;5.60;93.30;;;;;;5005587;28;20081;-80
2021/11/13 09:17:31;;;;;;;7.10;2.45;;;5.60;93.30;;;;;;5009812;28;20088;-82
2021/11/13 09:19:57;;;;;;;4.00;2.60;;;5.60;93.40;;;;;;5009894;28;20021;-80
2021/11/13 09:22:25;;;;;;;5.63;2.60;;;5.70;93.30;;;;;;5017290;28;20022;-78
2021/11/13 09:24:52;;;;;;;3.45;2.58;;;5.70;93.30;;;;;;5017715;28;20022;-80
2021/11/13 09:27:18;;;;;;;2.38;2.00;;;5.80;93.20;;;;;;5014651;28;20506;-81
2021/11/13 09:29:44;;;;;;;2.88;1.90;;;5.80;93.00;;;;;;5015393;28;20479;-81
2021/11/13 09:32:10;;;;;;;3.13;2.83;;;5.80;93.10;;;;;;5013103;28;20065;-83
2021/11/13 09:34:36;;;;;;;3.35;2.30;;;5.80;93.10;;;;;;5019923;28;20041;-81
2021/11/13 09:37:02;;;;;;;2.63;2.40;;;5.90;93.00;;;;;;5014785;28;20133;-80
2021/11/13 09:39:28;;;;;;;4.18;2.75;;;5.90;92.70;;;;;;5015820;28;20026;-79
2021/11/13 09:41:54;;;;;;;5.47;2.33;;;5.90;92.70;;;;;;4997097;28;20026;-81
2021/11/13 09:44:19;;;;;;;2.88;1.52;;;6.00;92.60;;;;;;5014457;28;20026;-79
2021/11/13 09:46:47;;;;;;;3.90;1.52;;;6.00;91.90;;;;;;5014353;28;20069;-80
2021/11/13 09:49:14;;;;;;;6.78;3.60;;;6.00;91.40;;;;;;4996276;28;20498;-78
2021/11/13 09:51:41;;;;;;;4.57;2.53;;;6.00;91.60;;;;;;5015455;28;20030;-79
2021/11/13 09:54:07;;;;;;;4.15;2.53;;;6.10;91.80;;;;;;5016166;28;20029;-80
2021/11/13 09:56:35;;;;;;;5.15;2.42;;;6.20;91.80;;;;;;5013432;28;20026;-79
2021/11/13 09:59:01;;;;;;;;;;;6.20;91.80;;;;;;5014681;28;20045;-79
2021/11/13 10:01:27;;;;;;;2.90;2.10;;;6.20;91.90;;;;;;5013854;28;19906;-80
2021/11/13 10:03:52;;;;;;;4.95;2.80;;;6.10;91.70;;;;;;5014027;28;20022;-81
2021/11/13 10:06:18;;;;;;;5.22;3.50;;;6.10;91.70;;;;;;5013999;28;20108;-80
2021/11/13 10:08:46;;;;;;;5.43;3.58;;;6.10;91.60;;;;;;5005357;28;20108;-83
2021/11/13 10:11:17;;;;;;;3.33;3.03;;;6.10;91.20;;;;;;5001048;28;20018;-82
2021/11/13 10:13:48;;;;;;;6.72;3.55;;;6.00;91.10;;;;;;5007609;28;20030;-80
2021/11/13 10:16:18;;;;;;;9.13;3.50;;;6.00;91.30;;;;;;5014934;28;20439;-78
2021/11/13 10:18:53;;;;;;;4.85;3.75;;;6.00;91.40;;;;;;4995650;28;20026;-79
2021/11/13 10:21:22;;;;;;;8.55;4.90;;;6.00;91.60;;;;;;4994692;28;20030;-80
2021/11/13 10:23:57;;;;;;;7.10;4.28;;;5.90;91.70;;;;;;4994435;28;20030;-79
2021/11/13 10:26:28;;;;;;;7.32;3.95;;;5.90;92.10;;;;;;4993861;28;20030;-78
2021/11/13 10:28:56;;;;;;;7.60;3.35;;;5.90;92.40;;;;;;4993639;28;20109;-79
2021/11/13 10:31:46;;;;;;;4.97;3.20;;;5.90;92.60;;;;;;4995112;28;20031;-78
2021/11/13 10:34:16;;;;;;;4.35;2.88;;;5.90;92.80;;;;;;4998162;28;20029;-79
2021/11/13 10:36:44;;;;;;;3.70;2.63;;;5.90;92.80;;;;;;4993202;28;20069;-80
2021/11/13 10:39:12;;;;;;;3.05;2.53;;;5.70;92.90;;;;;;5014485;28;20022;-83
2021/11/13 10:41:54;;;;;;;2.63;2.42;;;5.60;93.30;;;;;;4996614;28;20030;-85
2021/11/13 10:44:26;;;;;;;2.28;2.08;;;5.50;93.60;;;;;;5014118;28;20483;-84
2021/11/13 10:46:52;;;;;;;2.05;1.75;;;5.50;93.70;;;;;;5018463;28;20030;-81
2021/11/13 10:49:19;;;;;;;3.70;2.92;;;5.40;93.70;;;;;;5024145;28;20049;-82
2021/11/13 10:51:58;;;;;;;3.88;2.28;;;5.40;93.90;;;;;;4995269;28;20031;-84
2021/11/13 10:54:25;;;;;;;3.33;2.10;;;5.50;93.90;;;;;;5004616;28;20521;-86
2021/11/13 10:56:54;;;;;;;4.57;2.88;;;5.50;93.80;;;;;;5013723;28;20029;-83
2021/11/13 10:59:38;;;;;;;2.88;2.08;;;5.50;93.60;;;;;;5013835;28;20046;-85
2021/11/13 11:02:10;;;;;;;4.75;2.80;;;5.50;93.60;;;;;;5014248;28;20553;-84
2021/11/13 11:04:39;;;;;;;2.90;2.13;;;5.40;93.60;;;;;;5013972;28;20379;-85
2021/11/13 11:07:23;;;;;;;5.38;2.65;;;5.20;94.10;;;;;;5013883;28;20034;-85
2021/11/13 11:10:08;;;;;;;6.00;2.47;;;5.10;94.50;;;;;;5014470;28;20062;-85
2021/11/13 11:12:36;;;;;;;2.95;2.42;;;5.00;95.10;;;;;;5018719;28;20502;-87
2021/11/13 11:15:07;;;;;;;;;;;4.90;95.10;;;;;;5014521;28;20106;-82
2021/11/13 11:17:33;;;;;;;3.92;2.58;;;4.90;95.00;;;;;;5016038;28;19905;-87
2021/11/13 11:20:15;;;;;;;6.53;3.45;;;4.80;95.60;;;;;;4999294;28;20096;-91
2021/11/13 11:22:41;;;;;;;5.82;2.72;;;4.80;96.00;;;;;;5017549;28;20076;-87
2021/11/13 11:25:12;;;;;;;4.07;2.65;;;4.90;96.10;;;;;;5003307;28;20014;-87
2021/11/13 11:27:43;;;;;;;5.13;3.30;;;5.00;96.10;;;;;;5016379;28;20026;-87
2021/11/13 11:30:13;;;;;;;3.25;2.75;;;5.00;95.80;;;;;;5015943;28;20026;-85
2021/11/13 11:32:54;;;;;;;4.05;3.15;;;4.90;95.80;;;;;;5005158;28;20036;-88
2021/11/13 11:35:21;;;;;;;4.35;3.03;;;4.90;96.20;;;;;;5015540;28;20034;-89
2021/11/13 11:37:51;;;;;;;6.82;3.17;;;4.90;96.40;;;;;;5000417;28;20018;-89
2021/11/13 11:40:25;;;;;;;3.28;2.38;;;4.80;96.30;;;;;;5025901;28;20029;-84
2021/11/13 11:42:53;;;;;;;5.80;3.40;;;4.90;96.40;;;;;;5005515;28;20064;-88
2021/11/13 11:45:23;;;;;;;4.65;3.58;;;4.90;96.40;;;;;;5011282;28;20030;-91
2021/11/13 11:47:51;;;;;;;5.78;3.08;;;4.90;96.70;;;;;;5028825;28;20029;-87
2021/11/13 11:50:24;;;;;;;6.25;2.92;;;5.00;96.70;;;;;;5032599;28;20021;-83
2021/11/13 11:52:56;;;;;;;5.80;2.45;;;5.10;96.60;;;;;;5043245;28;20030;-91
2021/11/13 11:55:22;;;;;;;5.25;2.75;;;5.00;96.40;;;;;;5037549;28;20112;-85
2021/11/13 11:57:54;;;;;;;3.95;2.70;;;4.90;96.10;;;;;;5036399;28;20052;-80
2021/11/13 12:00:23;;;;;;;4.45;2.55;;;4.90;96.30;;;;;;5026431;28;20439;-90
2021/11/13 12:02:51;;;;;;;4.18;2.60;;;4.90;96.50;;;;;;5006653;28;20034;-88
2021/11/13 12:05:21;;;;;;;5.93;2.75;;;4.80;95.80;;;;;;5030968;28;20116;-85
2021/11/13 12:07:50;;;;;;;3.42;2.42;;;4.80;95.60;;;;;;5035840;28;20083;-88
2021/11/13 12:10:26;;;;;;;7.15;2.97;;;4.80;95.70;;;;;;5034900;28;20029;-90
2021/11/13 12:13:04;;;;;;;;;;;4.90;95.60;;;;;;5018334;28;20030;-90
2021/11/13 12:15:33;;;;;;;3.45;2.63;;;4.90;95.60;;;;;;5017282;28;19973;-87
2021/11/13 12:18:24;;;;;;;4.00;2.90;;;5.00;95.50;;;;;;5030614;28;20582;-82
2021/11/13 12:21:11;;;;;;;9.07;3.33;;;5.00;95.40;;;;;;5033346;28;20030;-87
2021/11/13 12:23:46;;;;;;;4.47;2.80;;;4.90;95.60;;;;;;5010855;28;20026;-80
2021/11/13 12:26:19;;;;;;;4.53;3.13;;;5.00;95.60;;;;;;5016917;28;20038;-82
2021/11/13 12:28:45;;;;;;;3.58;2.42;;;5.10;95.30;;;;;;5011118;28;20510;-82
2021/11/13 12:31:20;;;;;;;6.60;2.80;;;5.10;94.60;;;;;;5017077;28;20034;-83
2021/11/13 12:33:49;;;;;;;4.10;2.45;;;5.20;94.50;;;;;;4999576;28;20019;-84
2021/11/13 12:36:27;;;;;;;5.20;2.55;;;5.30;94.10;;;;;;5005869;28;20036;-84
2021/11/13 12:38:56;;;;;;;4.07;2.28;;;5.20;93.70;;;;;;4998304;28;20042;-88
2021/11/13 12:41:23;;;;;;;3.50;2.83;;;5.20;93.50;;;;;;5019998;28;20039;-84
2021/11/13 12:43:55;;;;;;;6.65;3.15;;;5.10;93.50;;;;;;5018694;28;20022;-84
2021/11/13 12:46:33;;;;;;;4.15;2.70;;;5.20;93.40;;;;;;5015520;28;20376;-88
2021/11/13 12:49:18;;;;;;;3.63;2.38;;;5.20;93.40;;;;;;5014696;28;20022;-91
2021/11/13 12:51:58;;;;;;;4.18;2.00;;;5.20;93.10;;;;;;5015077;28;20053;-85
2021/11/13 12:54:32;;;;;;;3.92;2.63;;;5.30;93.20;;;;;;5020278;28;20026;-91
2021/11/13 12:57:03;;;;;;;14.77;9.00;;;5.40;92.90;;;;;;5020644;28;20046;-91
2021/11/13 12:59:32;;;;;;;3.13;1.90;;;5.40;92.80;;;;;;4997358;28;20046;-89
2021/11/13 13:02:07;;;;;;;2.15;1.65;;;5.40;92.40;;;;;;5021077;28;20485;-86
2021/11/13 13:04:34;;;;;;;5.57;2.45;;;5.40;92.00;;;;;;5018181;28;20033;-85